sensor_id;sensor_type;location;lat;lon;timestamp;temperature;humidity
25170;DHT22;13129;48.012;10.352;2022-10-16T03:31:20;12.30;99.90
25170;DHT22;13129;48.012;10.352;2022-10-16T03:33:46;12.30;99.90
25170;DHT22;13129;48.012;10.352;2022-10-16T03:36:11;12.30;99.90
25170;DHT22;13129;48.012;10.352;2022-10-16T03:38:37;12.30;99.90
25170;DHT22;13129;48.012;10.352;2022-10-16T03:41:02;12.30;99.90
25170;DHT22;13129;48.012;10.352;2022-10-16T03:43:29;12.30;99.90
25170;DHT22;13129;48.012;10.352;2022-10-16T03:45:54;12.30;99.90
25170;DHT22;13129;48.012;10.352;2022-10-16T03:48:20;12.30;99.90
25170;DHT22;13129;48.012;10.352;2022-10-16T03:50:46;12.30;99.90
25170;DHT22;13129;48.012;10.352;2022-10-16T03:53:14;12.30;99.90
25170;DHT22;13129;48.012;10.352;2022-10-16T03:55:42;12.30;99.90
25170;DHT22;13129;48.012;10.352;2022-10-16T03:58:07;12.30;99.90
25170;DHT22;13129;48.012;10.352;2022-10-16T04:00:33;12.20;99.90
25170;DHT22;13129;48.012;10.352;2022-10-16T04:03:00;12.20;99.90
25170;DHT22;13129;48.012;10.352;2022-10-16T04:05:26;12.20;99.90
25170;DHT22;13129;48.012;10.352;2022-10-16T04:07:51;12.20;99.90
25170;DHT22;13129;48.012;10.352;2022-10-16T04:10:17;12.20;99.90
25170;DHT22;13129;48.012;10.352;2022-10-16T04:12:43;12.20;99.90
25170;DHT22;13129;48.012;10.352;2022-10-16T04:15:09;12.20;99.90
25170;DHT22;13129;48.012;10.352;2022-10-16T04:17:35;12.20;99.90
25170;DHT22;13129;48.012;10.352;2022-10-16T04:20:01;12.20;99.90
25170;DHT22;13129;48.012;10.352;2022-10-16T04:22:26;12.20;99.90
25170;DHT22;13129;48.012;10.352;2022-10-16T04:24:52;12.20;99.90
25170;DHT22;13129;48.012;10.352;2022-10-16T04:27:18;12.20;99.90
25170;DHT22;13129;48.012;10.352;2022-10-16T04:29:43;12.10;99.90
25170;DHT22;13129;48.012;10.352;2022-10-16T04:32:09;12.10;99.90
25170;DHT22;13129;48.012;10.352;2022-10-16T04:34:35;12.10;99.90
25170;DHT22;13129;48.012;10.352;2022-10-16T04:37:00;12.10;99.90
25170;DHT22;13129;48.012;10.352;2022-10-16T04:39:26;12.10;99.90
25170;DHT22;13129;48.012;10.352;2022-10-16T04:41:52;12.00;99.90
25170;DHT22;13129;48.012;10.352;2022-10-16T04:44:17;12.00;99.90
25170;DHT22;13129;48.012;10.352;2022-10-16T04:46:43;12.00;99.90
25170;DHT22;13129;48.012;10.352;2022-10-16T04:49:09;11.90;99.90
25170;DHT22;13129;48.012;10.352;2022-10-16T04:51:35;11.90;99.90
25170;DHT22;13129;48.012;10.352;2022-10-16T04:54:01;11.80;99.90
25170;DHT22;13129;48.012;10.352;2022-10-16T04:56:27;11.70;99.90
25170;DHT22;13129;48.012;10.352;2022-10-16T04:58:52;11.70;99.90
25170;DHT22;13129;48.012;10.352;2022-10-16T05:01:18;11.70;99.90
25170;DHT22;13129;48.012;10.352;2022-10-16T05:03:44;11.70;99.90
25170;DHT22;13129;48.012;10.352;2022-10-16T05:06:09;11.80;99.90
25170;DHT22;13129;48.012;10.352;2022-10-16T05:08:35;11.70;99.90
25170;DHT22;13129;48.012;10.352;2022-10-16T05:11:00;11.80;99.90
25170;DHT22;13129;48.012;10.352;2022-10-16T05:13:27;11.70;99.90
25170;DHT22;13129;48.012;10.352;2022-10-16T05:15:53;11.80;99.90
25170;DHT22;13129;48.012;10.352;2022-10-16T05:18:18;11.70;99.90
25170;DHT22;13129;48.012;10.352;2022-10-16T05:20:44;11.70;99.90
25170;DHT22;13129;48.012;10.352;2022-10-16T05:23:10;11.60;99.90
25170;DHT22;13129;48.012;10.352;2022-10-16T05:25:37;11.60;99.90
25170;DHT22;13129;48.012;10.352;2022-10-16T05:28:03;11.50;99.90
25170;DHT22;13129;48.012;10.352;2022-10-16T05:30:29;11.50;99.90
25170;DHT22;13129;48.012;10.352;2022-10-16T05:32:54;11.40;99.90
25170;DHT22;13129;48.012;10.352;2022-10-16T05:35:21;11.30;99.90
25170;DHT22;13129;48.012;10.352;2022-10-16T05:37:47;11.20;99.90
25170;DHT22;13129;48.012;10.352;2022-10-16T05:40:13;11.20;99.90
25170;DHT22;13129;48.012;10.352;2022-10-16T05:42:40;11.10;99.90
25170;DHT22;13129;48.012;10.352;2022-10-16T05:45:07;11.10;99.90
25170;DHT22;13129;48.012;10.352;2022-10-16T05:47:33;11.10;99.90
25170;DHT22;13129;48.012;10.352;2022-10-16T05:49:59;11.10;99.90
25170;DHT22;13129;48.012;10.352;2022-10-16T05:52:26;11.10;99.90
25170;DHT22;13129;48.012;10.352;2022-10-16T05:54:52;11.20;99.90
25170;DHT22;13129;48.012;10.352;2022-10-16T05:57:18;11.20;99.90
25170;DHT22;13129;48.012;10.352;2022-10-16T05:59:43;11.20;99.90
25170;DHT22;13129;48.012;10.352;2022-10-16T06:02:15;11.20;99.90
25170;DHT22;13129;48.012;10.352;2022-10-16T06:04:41;11.20;99.90
25170;DHT22;13129;48.012;10.352;2022-10-16T06:07:07;11.20;99.90
25170;DHT22;13129;48.012;10.352;2022-10-16T06:09:32;11.20;99.90
25170;DHT22;13129;48.012;10.352;2022-10-16T06:11:58;11.20;99.90
25170;DHT22;13129;48.012;10.352;2022-10-16T06:14:24;11.30;99.90
25170;DHT22;13129;48.012;10.352;2022-10-16T06:16:49;11.30;99.90
25170;DHT22;13129;48.012;10.352;2022-10-16T06:19:15;11.40;99.90
25170;DHT22;13129;48.012;10.352;2022-10-16T06:21:41;11.40;99.90
25170;DHT22;13129;48.012;10.352;2022-10-16T06:24:08;11.50;99.90
25170;DHT22;13129;48.012;10.352;2022-10-16T06:26:33;11.60;99.90
25170;DHT22;13129;48.012;10.352;2022-10-16T06:29:00;11.70;99.90
25170;DHT22;13129;48.012;10.352;2022-10-16T06:31:26;11.90;99.90
25170;DHT22;13129;48.012;10.352;2022-10-16T06:33:54;11.90;99.90
25170;DHT22;13129;48.012;10.352;2022-10-16T06:36:21;12.00;99.90
25170;DHT22;13129;48.012;10.352;2022-10-16T06:38:47;12.10;99.90
25170;DHT22;13129;48.012;10.352;2022-10-16T06:41:15;12.20;99.90
25170;DHT22;13129;48.012;10.352;2022-10-16T06:43:42;12.30;99.90
25170;DHT22;13129;48.012;10.352;2022-10-16T06:46:10;12.50;99.90
25170;DHT22;13129;48.012;10.352;2022-10-16T06:48:37;12.60;99.90
25170;DHT22;13129;48.012;10.352;2022-10-16T06:51:11;12.80;99.90
25170;DHT22;13129;48.012;10.352;2022-10-16T06:53:39;12.90;99.90
25170;DHT22;13129;48.012;10.352;2022-10-16T06:58:40;13.10;99.90
25170;DHT22;13129;48.012;10.352;2022-10-16T07:01:07;13.20;99.90
25170;DHT22;13129;48.012;10.352;2022-10-16T07:03:32;13.30;99.90
25170;DHT22;13129;48.012;10.352;2022-10-16T07:06:02;13.50;99.90
25170;DHT22;13129;48.012;10.352;2022-10-16T07:08:31;13.70;99.90
25170;DHT22;13129;48.012;10.352;2022-10-16T07:11:03;13.90;99.90
25170;DHT22;13129;48.012;10.352;2022-10-16T07:13:29;14.00;99.90
25170;DHT22;13129;48.012;10.352;2022-10-16T07:15:54;14.20;99.90
25170;DHT22;13129;48.012;10.352;2022-10-16T07:18:20;14.30;99.90
25170;DHT22;13129;48.012;10.352;2022-10-16T07:20:47;14.40;99.90
25170;DHT22;13129;48.012;10.352;2022-10-16T07:23:12;14.50;99.90
25170;DHT22;13129;48.012;10.352;2022-10-16T07:25:38;14.70;99.90
25170;DHT22;13129;48.012;10.352;2022-10-16T07:28:04;14.90;99.90
25170;DHT22;13129;48.012;10.352;2022-10-16T07:30:35;15.10;99.90
25170;DHT22;13129;48.012;10.352;2022-10-16T07:33:07;15.40;99.90
25170;DHT22;13129;48.012;10.352;2022-10-16T07:39:00;16.20;99.90
25170;DHT22;13129;48.012;10.352;2022-10-16T07:41:29;16.70;99.90
25170;DHT22;13129;48.012;10.352;2022-10-16T07:43:56;17.00;99.90
25170;DHT22;13129;48.012;10.352;2022-10-16T07:46:28;17.10;99.90
25170;DHT22;13129;48.012;10.352;2022-10-16T07:48:54;17.20;99.90
25170;DHT22;13129;48.012;10.352;2022-10-16T07:51:22;17.10;99.90
25170;DHT22;13129;48.012;10.352;2022-10-16T07:53:49;16.90;99.90
25170;DHT22;13129;48.012;10.352;2022-10-16T07:56:15;16.90;99.90
25170;DHT22;13129;48.012;10.352;2022-10-16T07:58:41;16.90;99.90
25170;DHT22;13129;48.012;10.352;2022-10-16T08:01:09;17.20;99.90
25170;DHT22;13129;48.012;10.352;2022-10-16T08:03:36;17.50;99.90
25170;DHT22;13129;48.012;10.352;2022-10-16T08:06:02;17.80;99.90
25170;DHT22;13129;48.012;10.352;2022-10-16T08:08:31;18.10;99.90
25170;DHT22;13129;48.012;10.352;2022-10-16T08:11:01;18.10;99.90
25170;DHT22;13129;48.012;10.352;2022-10-16T08:13:29;18.30;99.90
25170;DHT22;13129;48.012;10.352;2022-10-16T08:15:55;18.40;99.90
25170;DHT22;13129;48.012;10.352;2022-10-16T08:18:21;18.50;99.90
25170;DHT22;13129;48.012;10.352;2022-10-16T08:20:46;18.50;99.90
25170;DHT22;13129;48.012;10.352;2022-10-16T08:23:13;18.50;99.90
25170;DHT22;13129;48.012;10.352;2022-10-16T08:25:39;18.50;99.90
25170;DHT22;13129;48.012;10.352;2022-10-16T08:28:06;18.60;99.90
25170;DHT22;13129;48.012;10.352;2022-10-16T08:30:33;18.90;99.90
25170;DHT22;13129;48.012;10.352;2022-10-16T08:32:58;19.40;99.90
25170;DHT22;13129;48.012;10.352;2022-10-16T08:35:24;19.80;99.90
25170;DHT22;13129;48.012;10.352;2022-10-16T08:37:50;19.80;99.90
25170;DHT22;13129;48.012;10.352;2022-10-16T08:40:27;20.20;99.90
25170;DHT22;13129;48.012;10.352;2022-10-16T08:43:06;21.20;99.90
25170;DHT22;13129;48.012;10.352;2022-10-16T08:48:45;24.00;99.90
25170;DHT22;13129;48.012;10.352;2022-10-16T08:51:20;24.60;99.90
25170;DHT22;13129;48.012;10.352;2022-10-16T08:53:54;25.00;99.90
25170;DHT22;13129;48.012;10.352;2022-10-16T08:56:20;25.60;99.90
25170;DHT22;13129;48.012;10.352;2022-10-16T08:58:47;26.40;99.90
25170;DHT22;13129;48.012;10.352;2022-10-16T09:01:15;26.70;99.60
25170;DHT22;13129;48.012;10.352;2022-10-16T09:09:48;25.40;97.10
25170;DHT22;13129;48.012;10.352;2022-10-16T09:12:55;24.90;97.20
25170;DHT22;13129;48.012;10.352;2022-10-16T09:18:23;23.80;98.40
25170;DHT22;13129;48.012;10.352;2022-10-16T09:20:51;23.30;99.60
25170;DHT22;13129;48.012;10.352;2022-10-16T09:23:29;23.10;99.70
25170;DHT22;13129;48.012;10.352;2022-10-16T09:25:57;22.80;99.90
25170;DHT22;13129;48.012;10.352;2022-10-16T09:28:23;22.70;99.90
25170;DHT22;13129;48.012;10.352;2022-10-16T09:30:49;22.60;99.90
25170;DHT22;13129;48.012;10.352;2022-10-16T09:33:17;22.70;99.90
25170;DHT22;13129;48.012;10.352;2022-10-16T09:35:45;22.80;99.90
25170;DHT22;13129;48.012;10.352;2022-10-16T09:38:34;22.90;99.90
25170;DHT22;13129;48.012;10.352;2022-10-16T09:41:18;23.10;99.90
25170;DHT22;13129;48.012;10.352;2022-10-16T09:43:57;23.50;99.90
25170;DHT22;13129;48.012;10.352;2022-10-16T09:51:45;24.70;99.90
25170;DHT22;13129;48.012;10.352;2022-10-16T09:54:15;24.80;99.90
25170;DHT22;13129;48.012;10.352;2022-10-16T09:56:41;24.60;99.90
25170;DHT22;13129;48.012;10.352;2022-10-16T09:59:14;24.40;99.90
25170;DHT22;13129;48.012;10.352;2022-10-16T10:01:46;24.00;99.90
25170;DHT22;13129;48.012;10.352;2022-10-16T10:04:13;23.70;99.90
25170;DHT22;13129;48.012;10.352;2022-10-16T10:06:56;23.50;99.90
25170;DHT22;13129;48.012;10.352;2022-10-16T10:09:26;23.40;99.90
25170;DHT22;13129;48.012;10.352;2022-10-16T10:11:58;23.40;99.90
25170;DHT22;13129;48.012;10.352;2022-10-16T10:14:34;23.40;99.90
25170;DHT22;13129;48.012;10.352;2022-10-16T10:19:37;23.60;99.90
25170;DHT22;13129;48.012;10.352;2022-10-16T10:32:43;24.00;99.90
25170;DHT22;13129;48.012;10.352;2022-10-16T10:35:22;24.10;99.90
25170;DHT22;13129;48.012;10.352;2022-10-16T10:37:55;24.20;99.90
25170;DHT22;13129;48.012;10.352;2022-10-16T10:43:48;24.80;99.90
25170;DHT22;13129;48.012;10.352;2022-10-16T10:46:39;25.20;99.90
25170;DHT22;13129;48.012;10.352;2022-10-16T10:52:02;25.70;98.10
25170;DHT22;13129;48.012;10.352;2022-10-16T10:54:51;26.00;97.80
25170;DHT22;13129;48.012;10.352;2022-10-16T10:57:31;26.10;97.20
25170;DHT22;13129;48.012;10.352;2022-10-16T11:03:00;25.80;95.10
25170;DHT22;13129;48.012;10.352;2022-10-16T11:05:51;25.30;95.20
25170;DHT22;13129;48.012;10.352;2022-10-16T11:08:22;25.10;95.30
25170;DHT22;13129;48.012;10.352;2022-10-16T11:10:52;24.80;96.10
25170;DHT22;13129;48.012;10.352;2022-10-16T11:19:25;24.10;97.20
25170;DHT22;13129;48.012;10.352;2022-10-16T11:28:32;23.70;97.50
25170;DHT22;13129;48.012;10.352;2022-10-16T11:31:10;23.60;97.30
25170;DHT22;13129;48.012;10.352;2022-10-16T11:33:54;23.50;97.30
25170;DHT22;13129;48.012;10.352;2022-10-16T11:36:28;23.60;97.40
25170;DHT22;13129;48.012;10.352;2022-10-16T11:39:26;23.50;97.20
25170;DHT22;13129;48.012;10.352;2022-10-16T11:42:16;23.40;97.20
25170;DHT22;13129;48.012;10.352;2022-10-16T11:45:03;23.20;97.30
25170;DHT22;13129;48.012;10.352;2022-10-16T11:55:52;23.00;97.10
25170;DHT22;13129;48.012;10.352;2022-10-16T12:06:44;22.90;96.40
25170;DHT22;13129;48.012;10.352;2022-10-16T12:09:14;22.90;96.10
25170;DHT22;13129;48.012;10.352;2022-10-16T12:11:41;22.80;95.80
25170;DHT22;13129;48.012;10.352;2022-10-16T12:16:53;22.70;96.30
25170;DHT22;13129;48.012;10.352;2022-10-16T12:19:20;22.70;96.20
25170;DHT22;13129;48.012;10.352;2022-10-16T12:21:46;22.70;95.80
25170;DHT22;13129;48.012;10.352;2022-10-16T12:24:38;22.70;95.50
25170;DHT22;13129;48.012;10.352;2022-10-16T12:27:06;22.70;95.10
25170;DHT22;13129;48.012;10.352;2022-10-16T12:29:45;22.70;94.70
25170;DHT22;13129;48.012;10.352;2022-10-16T12:32:29;22.70;94.80
25170;DHT22;13129;48.012;10.352;2022-10-16T12:34:56;22.70;94.80
25170;DHT22;13129;48.012;10.352;2022-10-16T12:37:36;22.70;94.50
25170;DHT22;13129;48.012;10.352;2022-10-16T12:42:50;22.60;93.80
25170;DHT22;13129;48.012;10.352;2022-10-16T12:45:42;22.50;94.00
25170;DHT22;13129;48.012;10.352;2022-10-16T12:48:21;22.60;93.90
25170;DHT22;13129;48.012;10.352;2022-10-16T12:50:48;22.60;94.10
25170;DHT22;13129;48.012;10.352;2022-10-16T12:53:25;22.50;93.80
25170;DHT22;13129;48.012;10.352;2022-10-16T12:56:01;22.50;93.90
25170;DHT22;13129;48.012;10.352;2022-10-16T12:58:40;22.50;93.70
25170;DHT22;13129;48.012;10.352;2022-10-16T13:01:42;22.50;93.60
25170;DHT22;13129;48.012;10.352;2022-10-16T13:04:34;22.50;93.50
25170;DHT22;13129;48.012;10.352;2022-10-16T13:07:45;22.50;93.40
25170;DHT22;13129;48.012;10.352;2022-10-16T13:10:15;22.40;93.60
25170;DHT22;13129;48.012;10.352;2022-10-16T13:23:27;22.20;93.10
25170;DHT22;13129;48.012;10.352;2022-10-16T13:28:45;22.20;93.20
25170;DHT22;13129;48.012;10.352;2022-10-16T13:31:21;22.10;92.90
25170;DHT22;13129;48.012;10.352;2022-10-16T13:33:50;22.20;92.90
25170;DHT22;13129;48.012;10.352;2022-10-16T13:36:44;22.10;92.70
25170;DHT22;13129;48.012;10.352;2022-10-16T13:39:16;22.10;92.20
25170;DHT22;13129;48.012;10.352;2022-10-16T13:41:57;22.10;92.00
25170;DHT22;13129;48.012;10.352;2022-10-16T13:44:23;22.00;91.60
25170;DHT22;13129;48.012;10.352;2022-10-16T13:46:59;22.00;91.50
25170;DHT22;13129;48.012;10.352;2022-10-16T13:49:25;21.90;91.30
25170;DHT22;13129;48.012;10.352;2022-10-16T13:51:56;21.80;91.30
25170;DHT22;13129;48.012;10.352;2022-10-16T13:54:23;21.80;91.60
25170;DHT22;13129;48.012;10.352;2022-10-16T13:56:49;21.80;91.90
25170;DHT22;13129;48.012;10.352;2022-10-16T13:59:26;21.70;92.10
25170;DHT22;13129;48.012;10.352;2022-10-16T14:01:55;21.70;92.30
25170;DHT22;13129;48.012;10.352;2022-10-16T14:04:22;21.70;91.90
25170;DHT22;13129;48.012;10.352;2022-10-16T14:06:50;21.70;91.40
25170;DHT22;13129;48.012;10.352;2022-10-16T14:14:20;21.70;91.50
25170;DHT22;13129;48.012;10.352;2022-10-16T14:16:47;21.70;92.00
25170;DHT22;13129;48.012;10.352;2022-10-16T14:19:27;21.60;92.20
25170;DHT22;13129;48.012;10.352;2022-10-16T14:21:53;21.60;92.60
25170;DHT22;13129;48.012;10.352;2022-10-16T14:24:37;21.50;93.10
25170;DHT22;13129;48.012;10.352;2022-10-16T14:27:26;21.40;93.20
25170;DHT22;13129;48.012;10.352;2022-10-16T14:30:18;21.30;93.20
25170;DHT22;13129;48.012;10.352;2022-10-16T14:33:00;21.30;93.50
25170;DHT22;13129;48.012;10.352;2022-10-16T14:37:57;21.20;93.80
25170;DHT22;13129;48.012;10.352;2022-10-16T14:40:45;21.20;94.00
25170;DHT22;13129;48.012;10.352;2022-10-16T14:43:22;21.20;94.10
25170;DHT22;13129;48.012;10.352;2022-10-16T14:45:52;21.10;94.40
25170;DHT22;13129;48.012;10.352;2022-10-16T14:48:19;21.10;94.70
25170;DHT22;13129;48.012;10.352;2022-10-16T14:50:46;21.10;95.00
25170;DHT22;13129;48.012;10.352;2022-10-16T14:53:12;21.10;94.70
25170;DHT22;13129;48.012;10.352;2022-10-16T14:55:39;21.00;94.60
25170;DHT22;13129;48.012;10.352;2022-10-16T14:58:25;21.00;94.60
25170;DHT22;13129;48.012;10.352;2022-10-16T15:00:51;20.90;94.80
25170;DHT22;13129;48.012;10.352;2022-10-16T15:03:17;20.80;94.90
25170;DHT22;13129;48.012;10.352;2022-10-16T15:05:43;20.80;95.50
25170;DHT22;13129;48.012;10.352;2022-10-16T15:08:08;20.70;97.10
25170;DHT22;13129;48.012;10.352;2022-10-16T15:10:40;20.60;98.50
25170;DHT22;13129;48.012;10.352;2022-10-16T15:13:05;20.50;99.70
25170;DHT22;13129;48.012;10.352;2022-10-16T15:15:42;20.40;99.90
25170;DHT22;13129;48.012;10.352;2022-10-16T15:18:08;20.30;99.90
25170;DHT22;13129;48.012;10.352;2022-10-16T15:20:35;20.30;99.90
25170;DHT22;13129;48.012;10.352;2022-10-16T15:23:15;20.20;99.90
25170;DHT22;13129;48.012;10.352;2022-10-16T15:25:48;20.10;99.90
25170;DHT22;13129;48.012;10.352;2022-10-16T15:28:16;20.00;99.90
25170;DHT22;13129;48.012;10.352;2022-10-16T15:30:43;20.00;99.90
25170;DHT22;13129;48.012;10.352;2022-10-16T15:33:17;19.80;99.90
25170;DHT22;13129;48.012;10.352;2022-10-16T15:35:46;19.70;99.90
25170;DHT22;13129;48.012;10.352;2022-10-16T15:38:13;19.60;99.90
25170;DHT22;13129;48.012;10.352;2022-10-16T15:40:39;19.50;99.90
25170;DHT22;13129;48.012;10.352;2022-10-16T15:43:05;19.30;99.90
25170;DHT22;13129;48.012;10.352;2022-10-16T16:08:50;17.90;99.90
25170;DHT22;13129;48.012;10.352;2022-10-16T16:11:17;17.80;99.90
25170;DHT22;13129;48.012;10.352;2022-10-16T16:13:43;17.60;99.90
25170;DHT22;13129;48.012;10.352;2022-10-16T16:16:11;17.50;99.90
25170;DHT22;13129;48.012;10.352;2022-10-16T16:18:39;17.40;99.90
25170;DHT22;13129;48.012;10.352;2022-10-16T16:21:06;17.30;99.90
25170;DHT22;13129;48.012;10.352;2022-10-16T16:23:32;17.20;99.90
25170;DHT22;13129;48.012;10.352;2022-10-16T16:26:06;17.20;99.90
25170;DHT22;13129;48.012;10.352;2022-10-16T16:28:32;17.10;99.90
25170;DHT22;13129;48.012;10.352;2022-10-16T16:30:58;17.00;99.90
25170;DHT22;13129;48.012;10.352;2022-10-16T16:33:23;16.90;99.90
25170;DHT22;13129;48.012;10.352;2022-10-16T16:35:49;16.90;99.90
25170;DHT22;13129;48.012;10.352;2022-10-16T16:38:15;16.80;99.90
25170;DHT22;13129;48.012;10.352;2022-10-16T16:40:40;16.60;99.90
25170;DHT22;13129;48.012;10.352;2022-10-16T16:43:06;16.60;99.90
25170;DHT22;13129;48.012;10.352;2022-10-16T16:45:35;16.50;99.90
25170;DHT22;13129;48.012;10.352;2022-10-16T16:48:01;16.40;99.90
25170;DHT22;13129;48.012;10.352;2022-10-16T16:50:27;16.40;99.90
25170;DHT22;13129;48.012;10.352;2022-10-16T16:52:52;16.30;99.90
25170;DHT22;13129;48.012;10.352;2022-10-16T16:55:18;16.30;99.90
25170;DHT22;13129;48.012;10.352;2022-10-16T16:57:44;16.20;99.90
25170;DHT22;13129;48.012;10.352;2022-10-16T17:00:10;16.10;99.90
25170;DHT22;13129;48.012;10.352;2022-10-16T17:02:35;16.10;99.90
25170;DHT22;13129;48.012;10.352;2022-10-16T17:05:01;16.00;99.90
25170;DHT22;13129;48.012;10.352;2022-10-16T17:07:31;16.00;99.90
25170;DHT22;13129;48.012;10.352;2022-10-16T17:09:58;15.90;99.90
25170;DHT22;13129;48.012;10.352;2022-10-16T17:12:23;15.80;99.90
25170;DHT22;13129;48.012;10.352;2022-10-16T17:14:50;15.80;99.90
25170;DHT22;13129;48.012;10.352;2022-10-16T17:17:15;15.70;99.90
25170;DHT22;13129;48.012;10.352;2022-10-16T17:19:41;15.60;99.90
25170;DHT22;13129;48.012;10.352;2022-10-16T17:22:07;15.60;99.90
25170;DHT22;13129;48.012;10.352;2022-10-16T17:24:32;15.60;99.90
25170;DHT22;13129;48.012;10.352;2022-10-16T17:26:58;15.50;99.90
25170;DHT22;13129;48.012;10.352;2022-10-16T17:29:24;15.50;99.90
25170;DHT22;13129;48.012;10.352;2022-10-16T17:31:49;15.40;99.90
25170;DHT22;13129;48.012;10.352;2022-10-16T17:34:15;15.40;99.90
25170;DHT22;13129;48.012;10.352;2022-10-16T17:36:41;15.40;99.90
25170;DHT22;13129;48.012;10.352;2022-10-16T17:39:12;15.30;99.90
25170;DHT22;13129;48.012;10.352;2022-10-16T17:41:39;15.20;99.90
25170;DHT22;13129;48.012;10.352;2022-10-16T17:44:05;15.10;99.90
25170;DHT22;13129;48.012;10.352;2022-10-16T17:46:32;15.00;99.90
25170;DHT22;13129;48.012;10.352;2022-10-16T17:48:58;14.90;99.90
25170;DHT22;13129;48.012;10.352;2022-10-16T17:51:26;14.80;99.90
25170;DHT22;13129;48.012;10.352;2022-10-16T17:53:54;14.70;99.90
25170;DHT22;13129;48.012;10.352;2022-10-16T17:56:21;14.60;99.90
25170;DHT22;13129;48.012;10.352;2022-10-16T17:58:48;14.40;99.90
25170;DHT22;13129;48.012;10.352;2022-10-16T18:03:42;14.20;99.90
25170;DHT22;13129;48.012;10.352;2022-10-16T18:06:08;14.10;99.90
25170;DHT22;13129;48.012;10.352;2022-10-16T18:08:34;14.20;99.90
25170;DHT22;13129;48.012;10.352;2022-10-16T18:11:02;14.10;99.90
25170;DHT22;13129;48.012;10.352;2022-10-16T18:13:28;14.10;99.90
25170;DHT22;13129;48.012;10.352;2022-10-16T18:16:06;14.10;99.90
25170;DHT22;13129;48.012;10.352;2022-10-16T18:18:34;14.10;99.90
25170;DHT22;13129;48.012;10.352;2022-10-16T18:21:02;13.90;99.90
25170;DHT22;13129;48.012;10.352;2022-10-16T18:23:29;13.90;99.90
25170;DHT22;13129;48.012;10.352;2022-10-16T18:25:55;13.80;99.90
25170;DHT22;13129;48.012;10.352;2022-10-16T18:28:21;13.80;99.90
25170;DHT22;13129;48.012;10.352;2022-10-16T18:30:58;13.70;99.90
25170;DHT22;13129;48.012;10.352;2022-10-16T18:33:24;13.60;99.90
25170;DHT22;13129;48.012;10.352;2022-10-16T18:35:50;13.60;99.90
25170;DHT22;13129;48.012;10.352;2022-10-16T18:38:16;13.60;99.90
25170;DHT22;13129;48.012;10.352;2022-10-16T18:40:42;13.70;99.90
25170;DHT22;13129;48.012;10.352;2022-10-16T18:43:07;13.70;99.90
25170;DHT22;13129;48.012;10.352;2022-10-16T18:45:33;13.70;99.90
25170;DHT22;13129;48.012;10.352;2022-10-16T18:47:59;13.70;99.90
25170;DHT22;13129;48.012;10.352;2022-10-16T18:50:24;13.60;99.90
25170;DHT22;13129;48.012;10.352;2022-10-16T18:52:50;13.60;99.90
25170;DHT22;13129;48.012;10.352;2022-10-16T18:55:16;13.60;99.90
25170;DHT22;13129;48.012;10.352;2022-10-16T18:57:42;13.50;99.90
25170;DHT22;13129;48.012;10.352;2022-10-16T19:00:08;13.50;99.90
25170;DHT22;13129;48.012;10.352;2022-10-16T19:02:34;13.50;99.90
25170;DHT22;13129;48.012;10.352;2022-10-16T19:05:00;13.50;99.90
25170;DHT22;13129;48.012;10.352;2022-10-16T19:07:26;13.50;99.90
25170;DHT22;13129;48.012;10.352;2022-10-16T19:09:52;13.60;99.90
25170;DHT22;13129;48.012;10.352;2022-10-16T19:12:17;13.50;99.90
25170;DHT22;13129;48.012;10.352;2022-10-16T19:14:47;13.50;99.90
25170;DHT22;13129;48.012;10.352;2022-10-16T19:17:13;13.50;99.90
25170;DHT22;13129;48.012;10.352;2022-10-16T19:19:39;13.50;99.90
25170;DHT22;13129;48.012;10.352;2022-10-16T19:22:04;13.50;99.90
25170;DHT22;13129;48.012;10.352;2022-10-16T19:24:39;13.50;99.90
25170;DHT22;13129;48.012;10.352;2022-10-16T19:27:05;13.40;99.90
25170;DHT22;13129;48.012;10.352;2022-10-16T19:29:31;13.30;99.90
25170;DHT22;13129;48.012;10.352;2022-10-16T19:31:57;13.30;99.90
25170;DHT22;13129;48.012;10.352;2022-10-16T19:34:23;13.30;99.90
25170;DHT22;13129;48.012;10.352;2022-10-16T19:36:51;13.20;99.90
25170;DHT22;13129;48.012;10.352;2022-10-16T19:39:17;13.20;99.90
25170;DHT22;13129;48.012;10.352;2022-10-16T19:41:44;13.20;99.90
25170;DHT22;13129;48.012;10.352;2022-10-16T19:44:14;13.20;99.90
25170;DHT22;13129;48.012;10.352;2022-10-16T19:46:41;13.10;99.90
25170;DHT22;13129;48.012;10.352;2022-10-16T19:49:14;13.10;99.90
25170;DHT22;13129;48.012;10.352;2022-10-16T19:51:41;13.00;99.90
25170;DHT22;13129;48.012;10.352;2022-10-16T19:54:11;12.90;99.90
25170;DHT22;13129;48.012;10.352;2022-10-16T19:56:37;12.90;99.90
25170;DHT22;13129;48.012;10.352;2022-10-16T19:59:05;12.80;99.90
25170;DHT22;13129;48.012;10.352;2022-10-16T20:01:31;12.60;99.90
25170;DHT22;13129;48.012;10.352;2022-10-16T20:03:57;12.60;99.90
25170;DHT22;13129;48.012;10.352;2022-10-16T20:06:23;12.40;99.90
25170;DHT22;13129;48.012;10.352;2022-10-16T20:08:50;12.40;99.90
25170;DHT22;13129;48.012;10.352;2022-10-16T20:11:25;12.40;99.90
25170;DHT22;13129;48.012;10.352;2022-10-16T20:13:51;12.40;99.90
25170;DHT22;13129;48.012;10.352;2022-10-16T20:16:18;12.30;99.90
25170;DHT22;13129;48.012;10.352;2022-10-16T20:18:45;12.30;99.90
25170;DHT22;13129;48.012;10.352;2022-10-16T20:21:15;12.30;99.90
25170;DHT22;13129;48.012;10.352;2022-10-16T20:23:41;12.30;99.90
25170;DHT22;13129;48.012;10.352;2022-10-16T20:26:07;12.20;99.90
25170;DHT22;13129;48.012;10.352;2022-10-16T20:28:37;12.30;99.90
25170;DHT22;13129;48.012;10.352;2022-10-16T20:31:08;12.30;99.90
25170;DHT22;13129;48.012;10.352;2022-10-16T20:33:35;12.30;99.90
25170;DHT22;13129;48.012;10.352;2022-10-16T20:36:01;12.20;99.90
25170;DHT22;13129;48.012;10.352;2022-10-16T20:38:27;12.10;99.90
25170;DHT22;13129;48.012;10.352;2022-10-16T20:40:52;12.00;99.90
25170;DHT22;13129;48.012;10.352;2022-10-16T20:43:18;12.00;99.90
25170;DHT22;13129;48.012;10.352;2022-10-16T20:45:45;11.90;99.90
25170;DHT22;13129;48.012;10.352;2022-10-16T20:48:12;11.90;99.90
25170;DHT22;13129;48.012;10.352;2022-10-16T20:50:39;11.90;99.90
25170;DHT22;13129;48.012;10.352;2022-10-16T20:53:05;11.90;99.90
25170;DHT22;13129;48.012;10.352;2022-10-16T20:55:34;11.90;99.90
25170;DHT22;13129;48.012;10.352;2022-10-16T20:58:01;11.90;99.90
25170;DHT22;13129;48.012;10.352;2022-10-16T21:00:26;11.90;99.90
25170;DHT22;13129;48.012;10.352;2022-10-16T21:02:52;11.90;99.90
25170;DHT22;13129;48.012;10.352;2022-10-16T21:05:18;11.90;99.90